sensor_id;sensor_type;location;lat;lon;timestamp;temperature;humidity
24011;DHT22;12217;50.792;4.372;2023-12-20T00:00:21;8.10;99.90
24011;DHT22;12217;50.792;4.372;2023-12-20T00:02:47;8.10;99.90
24011;DHT22;12217;50.792;4.372;2023-12-20T00:05:14;7.90;99.90
24011;DHT22;12217;50.792;4.372;2023-12-20T00:07:40;7.80;99.90
24011;DHT22;12217;50.792;4.372;2023-12-20T00:10:05;7.90;99.90
24011;DHT22;12217;50.792;4.372;2023-12-20T00:12:32;7.90;99.90
24011;DHT22;12217;50.792;4.372;2023-12-20T00:14:57;7.90;99.90
24011;DHT22;12217;50.792;4.372;2023-12-20T00:17:23;8.10;99.90
24011;DHT22;12217;50.792;4.372;2023-12-20T00:19:48;8.10;99.90
24011;DHT22;12217;50.792;4.372;2023-12-20T00:22:14;8.10;99.90
24011;DHT22;12217;50.792;4.372;2023-12-20T00:24:40;8.10;99.90
24011;DHT22;12217;50.792;4.372;2023-12-20T00:27:05;8.00;99.90
24011;DHT22;12217;50.792;4.372;2023-12-20T00:29:31;8.10;99.90
24011;DHT22;12217;50.792;4.372;2023-12-20T00:31:56;8.10;99.90
24011;DHT22;12217;50.792;4.372;2023-12-20T00:34:22;8.10;99.90
24011;DHT22;12217;50.792;4.372;2023-12-20T00:36:47;8.10;99.90
24011;DHT22;12217;50.792;4.372;2023-12-20T00:39:13;8.00;99.90
24011;DHT22;12217;50.792;4.372;2023-12-20T00:41:39;8.00;99.90
24011;DHT22;12217;50.792;4.372;2023-12-20T00:44:04;8.00;99.90
24011;DHT22;12217;50.792;4.372;2023-12-20T00:46:30;7.90;99.90
24011;DHT22;12217;50.792;4.372;2023-12-20T00:48:56;7.90;99.90
24011;DHT22;12217;50.792;4.372;2023-12-20T00:51:22;7.80;99.90
24011;DHT22;12217;50.792;4.372;2023-12-20T00:53:49;7.70;99.90
24011;DHT22;12217;50.792;4.372;2023-12-20T00:56:15;7.70;99.90
24011;DHT22;12217;50.792;4.372;2023-12-20T00:58:41;7.60;99.90
24011;DHT22;12217;50.792;4.372;2023-12-20T01:01:06;7.40;99.90
24011;DHT22;12217;50.792;4.372;2023-12-20T01:03:32;7.50;99.90
24011;DHT22;12217;50.792;4.372;2023-12-20T01:05:58;7.40;99.90
24011;DHT22;12217;50.792;4.372;2023-12-20T01:08:23;7.40;99.90
24011;DHT22;12217;50.792;4.372;2023-12-20T01:10:49;7.30;99.90
24011;DHT22;12217;50.792;4.372;2023-12-20T01:13:14;7.40;99.90
24011;DHT22;12217;50.792;4.372;2023-12-20T01:15:40;7.40;99.90
24011;DHT22;12217;50.792;4.372;2023-12-20T01:18:06;7.50;99.90
24011;DHT22;12217;50.792;4.372;2023-12-20T01:20:31;7.50;99.90
24011;DHT22;12217;50.792;4.372;2023-12-20T01:22:57;7.60;99.90
24011;DHT22;12217;50.792;4.372;2023-12-20T01:25:22;7.60;99.90
24011;DHT22;12217;50.792;4.372;2023-12-20T01:27:48;7.50;99.90
24011;DHT22;12217;50.792;4.372;2023-12-20T01:30:14;7.50;99.90
24011;DHT22;12217;50.792;4.372;2023-12-20T01:32:40;7.40;99.90
24011;DHT22;12217;50.792;4.372;2023-12-20T01:35:06;7.40;99.90
24011;DHT22;12217;50.792;4.372;2023-12-20T01:37:31;7.40;99.90
24011;DHT22;12217;50.792;4.372;2023-12-20T01:39:57;7.40;99.90
24011;DHT22;12217;50.792;4.372;2023-12-20T01:42:24;7.50;99.90
24011;DHT22;12217;50.792;4.372;2023-12-20T01:44:49;7.40;99.90
24011;DHT22;12217;50.792;4.372;2023-12-20T01:47:15;7.20;99.90
24011;DHT22;12217;50.792;4.372;2023-12-20T01:49:41;7.10;99.90
24011;DHT22;12217;50.792;4.372;2023-12-20T01:52:08;7.10;99.90
24011;DHT22;12217;50.792;4.372;2023-12-20T01:54:35;7.00;99.90
24011;DHT22;12217;50.792;4.372;2023-12-20T01:57:01;7.20;99.90
24011;DHT22;12217;50.792;4.372;2023-12-20T01:59:28;7.20;99.90
24011;DHT22;12217;50.792;4.372;2023-12-20T02:01:54;7.00;99.90
24011;DHT22;12217;50.792;4.372;2023-12-20T02:04:20;7.20;99.90
24011;DHT22;12217;50.792;4.372;2023-12-20T02:06:46;7.20;99.90
24011;DHT22;12217;50.792;4.372;2023-12-20T02:09:12;7.20;99.90
24011;DHT22;12217;50.792;4.372;2023-12-20T02:11:38;7.30;99.90
24011;DHT22;12217;50.792;4.372;2023-12-20T02:14:04;7.40;99.90
24011;DHT22;12217;50.792;4.372;2023-12-20T02:16:30;7.20;99.90
24011;DHT22;12217;50.792;4.372;2023-12-20T02:18:56;7.00;99.90
24011;DHT22;12217;50.792;4.372;2023-12-20T02:21:25;7.00;99.90
24011;DHT22;12217;50.792;4.372;2023-12-20T02:23:56;7.00;99.90
24011;DHT22;12217;50.792;4.372;2023-12-20T02:26:22;7.10;99.90
24011;DHT22;12217;50.792;4.372;2023-12-20T02:28:48;7.20;99.90
24011;DHT22;12217;50.792;4.372;2023-12-20T02:31:13;7.20;99.90
24011;DHT22;12217;50.792;4.372;2023-12-20T02:33:39;7.20;99.90
24011;DHT22;12217;50.792;4.372;2023-12-20T02:36:06;7.30;99.90
24011;DHT22;12217;50.792;4.372;2023-12-20T02:38:32;7.40;99.90
24011;DHT22;12217;50.792;4.372;2023-12-20T02:40:58;7.40;99.90
24011;DHT22;12217;50.792;4.372;2023-12-20T02:43:23;7.30;99.90
24011;DHT22;12217;50.792;4.372;2023-12-20T02:45:49;7.30;99.90
24011;DHT22;12217;50.792;4.372;2023-12-20T02:48:14;7.20;99.90
24011;DHT22;12217;50.792;4.372;2023-12-20T02:50:40;7.00;99.90
24011;DHT22;12217;50.792;4.372;2023-12-20T02:53:06;6.70;99.90
24011;DHT22;12217;50.792;4.372;2023-12-20T02:55:31;6.70;99.90
24011;DHT22;12217;50.792;4.372;2023-12-20T02:57:57;6.70;99.90
24011;DHT22;12217;50.792;4.372;2023-12-20T03:00:23;7.00;99.90
24011;DHT22;12217;50.792;4.372;2023-12-20T03:02:48;7.10;99.90
24011;DHT22;12217;50.792;4.372;2023-12-20T03:05:14;7.10;99.90
24011;DHT22;12217;50.792;4.372;2023-12-20T03:07:40;7.20;99.90
24011;DHT22;12217;50.792;4.372;2023-12-20T03:10:06;7.00;99.90
24011;DHT22;12217;50.792;4.372;2023-12-20T03:12:33;6.90;99.90
24011;DHT22;12217;50.792;4.372;2023-12-20T03:14:58;6.90;99.90
24011;DHT22;12217;50.792;4.372;2023-12-20T03:17:24;6.90;99.90
24011;DHT22;12217;50.792;4.372;2023-12-20T03:19:49;6.90;99.90
24011;DHT22;12217;50.792;4.372;2023-12-20T03:22:15;6.90;99.90
24011;DHT22;12217;50.792;4.372;2023-12-20T03:24:40;7.10;99.90
24011;DHT22;12217;50.792;4.372;2023-12-20T03:27:06;7.10;99.90
24011;DHT22;12217;50.792;4.372;2023-12-20T03:29:32;7.20;99.90
24011;DHT22;12217;50.792;4.372;2023-12-20T03:31:57;7.10;99.90
24011;DHT22;12217;50.792;4.372;2023-12-20T03:34:23;6.90;99.90
24011;DHT22;12217;50.792;4.372;2023-12-20T03:36:49;6.90;99.90
24011;DHT22;12217;50.792;4.372;2023-12-20T03:39:14;6.80;99.90
24011;DHT22;12217;50.792;4.372;2023-12-20T03:41:40;6.80;99.90
24011;DHT22;12217;50.792;4.372;2023-12-20T03:44:05;7.00;99.90
24011;DHT22;12217;50.792;4.372;2023-12-20T03:46:31;7.10;99.90
24011;DHT22;12217;50.792;4.372;2023-12-20T03:48:57;7.10;99.90
24011;DHT22;12217;50.792;4.372;2023-12-20T03:51:22;7.20;99.90
24011;DHT22;12217;50.792;4.372;2023-12-20T03:53:48;7.20;99.90
24011;DHT22;12217;50.792;4.372;2023-12-20T03:56:13;7.30;99.90
24011;DHT22;12217;50.792;4.372;2023-12-20T03:58:39;7.20;99.90
24011;DHT22;12217;50.792;4.372;2023-12-20T04:01:09;7.00;99.90
24011;DHT22;12217;50.792;4.372;2023-12-20T04:03:37;6.80;99.90
24011;DHT22;12217;50.792;4.372;2023-12-20T04:06:03;6.70;99.90
24011;DHT22;12217;50.792;4.372;2023-12-20T04:08:28;6.80;99.90
24011;DHT22;12217;50.792;4.372;2023-12-20T04:10:54;6.90;99.90
24011;DHT22;12217;50.792;4.372;2023-12-20T04:13:20;6.80;99.90
24011;DHT22;12217;50.792;4.372;2023-12-20T04:15:45;6.90;99.90
24011;DHT22;12217;50.792;4.372;2023-12-20T04:18:11;6.80;99.90
24011;DHT22;12217;50.792;4.372;2023-12-20T04:20:36;7.00;99.90
24011;DHT22;12217;50.792;4.372;2023-12-20T04:23:02;6.90;99.90
24011;DHT22;12217;50.792;4.372;2023-12-20T04:25:28;7.00;99.90
24011;DHT22;12217;50.792;4.372;2023-12-20T04:27:53;7.00;99.90
24011;DHT22;12217;50.792;4.372;2023-12-20T04:30:19;7.00;99.90
24011;DHT22;12217;50.792;4.372;2023-12-20T04:32:44;6.90;99.90
24011;DHT22;12217;50.792;4.372;2023-12-20T04:35:10;6.90;99.90
24011;DHT22;12217;50.792;4.372;2023-12-20T04:37:36;6.70;99.90
24011;DHT22;12217;50.792;4.372;2023-12-20T04:40:01;6.60;99.90
24011;DHT22;12217;50.792;4.372;2023-12-20T04:42:27;6.70;99.90
24011;DHT22;12217;50.792;4.372;2023-12-20T04:44:53;6.70;99.90
24011;DHT22;12217;50.792;4.372;2023-12-20T04:47:18;6.70;99.90
24011;DHT22;12217;50.792;4.372;2023-12-20T04:49:44;6.60;99.90
24011;DHT22;12217;50.792;4.372;2023-12-20T04:52:09;6.80;99.90
24011;DHT22;12217;50.792;4.372;2023-12-20T04:54:35;6.90;99.90
24011;DHT22;12217;50.792;4.372;2023-12-20T04:57:01;6.90;99.90
24011;DHT22;12217;50.792;4.372;2023-12-20T04:59:26;7.00;99.90
24011;DHT22;12217;50.792;4.372;2023-12-20T05:01:52;6.90;99.90
24011;DHT22;12217;50.792;4.372;2023-12-20T05:04:17;6.80;99.90
24011;DHT22;12217;50.792;4.372;2023-12-20T05:06:43;6.80;99.90
24011;DHT22;12217;50.792;4.372;2023-12-20T05:09:08;6.70;99.90
24011;DHT22;12217;50.792;4.372;2023-12-20T05:11:34;6.80;99.90
24011;DHT22;12217;50.792;4.372;2023-12-20T05:14:00;7.00;99.90
24011;DHT22;12217;50.792;4.372;2023-12-20T05:16:25;6.90;99.90
24011;DHT22;12217;50.792;4.372;2023-12-20T05:18:51;6.90;99.90
24011;DHT22;12217;50.792;4.372;2023-12-20T05:21:17;6.80;99.90
24011;DHT22;12217;50.792;4.372;2023-12-20T05:23:43;6.80;99.90
24011;DHT22;12217;50.792;4.372;2023-12-20T05:26:09;6.90;99.90
24011;DHT22;12217;50.792;4.372;2023-12-20T05:28:34;6.90;99.90
24011;DHT22;12217;50.792;4.372;2023-12-20T05:31:00;6.80;99.90
24011;DHT22;12217;50.792;4.372;2023-12-20T05:33:25;6.90;99.90
24011;DHT22;12217;50.792;4.372;2023-12-20T05:35:51;6.80;99.90
24011;DHT22;12217;50.792;4.372;2023-12-20T05:38:17;6.70;99.90
24011;DHT22;12217;50.792;4.372;2023-12-20T05:40:42;6.80;99.90
24011;DHT22;12217;50.792;4.372;2023-12-20T05:43:08;6.70;99.90
24011;DHT22;12217;50.792;4.372;2023-12-20T05:45:33;6.60;99.90
24011;DHT22;12217;50.792;4.372;2023-12-20T05:47:59;6.50;99.90
24011;DHT22;12217;50.792;4.372;2023-12-20T05:50:25;6.40;99.90
24011;DHT22;12217;50.792;4.372;2023-12-20T05:52:51;6.40;99.90
24011;DHT22;12217;50.792;4.372;2023-12-20T05:55:16;6.50;99.90
24011;DHT22;12217;50.792;4.372;2023-12-20T05:57:42;6.50;99.90
24011;DHT22;12217;50.792;4.372;2023-12-20T06:00:09;6.30;99.90
24011;DHT22;12217;50.792;4.372;2023-12-20T06:02:35;6.30;99.90
24011;DHT22;12217;50.792;4.372;2023-12-20T06:05:03;6.20;99.90
24011;DHT22;12217;50.792;4.372;2023-12-20T06:07:29;6.30;99.90
24011;DHT22;12217;50.792;4.372;2023-12-20T06:09:55;6.50;99.90
24011;DHT22;12217;50.792;4.372;2023-12-20T06:12:20;6.30;99.90
24011;DHT22;12217;50.792;4.372;2023-12-20T06:14:46;6.50;99.90
24011;DHT22;12217;50.792;4.372;2023-12-20T06:17:11;6.60;99.90
24011;DHT22;12217;50.792;4.372;2023-12-20T06:19:37;6.40;99.90
24011;DHT22;12217;50.792;4.372;2023-12-20T06:22:03;6.50;99.90
24011;DHT22;12217;50.792;4.372;2023-12-20T06:24:28;6.50;99.90
24011;DHT22;12217;50.792;4.372;2023-12-20T06:26:55;6.50;99.90
24011;DHT22;12217;50.792;4.372;2023-12-20T06:29:20;6.40;99.90
24011;DHT22;12217;50.792;4.372;2023-12-20T06:31:46;6.50;99.90
24011;DHT22;12217;50.792;4.372;2023-12-20T06:34:12;6.40;99.90
24011;DHT22;12217;50.792;4.372;2023-12-20T06:36:37;6.50;99.90
24011;DHT22;12217;50.792;4.372;2023-12-20T06:39:03;6.70;99.90
24011;DHT22;12217;50.792;4.372;2023-12-20T06:41:30;6.60;99.90
24011;DHT22;12217;50.792;4.372;2023-12-20T06:43:55;6.60;99.90
24011;DHT22;12217;50.792;4.372;2023-12-20T06:46:22;6.70;99.90
24011;DHT22;12217;50.792;4.372;2023-12-20T06:48:47;6.70;99.90
24011;DHT22;12217;50.792;4.372;2023-12-20T06:51:15;6.70;99.90
24011;DHT22;12217;50.792;4.372;2023-12-20T06:53:41;6.50;99.90
24011;DHT22;12217;50.792;4.372;2023-12-20T06:56:07;6.30;99.90
24011;DHT22;12217;50.792;4.372;2023-12-20T06:58:33;6.30;99.90
24011;DHT22;12217;50.792;4.372;2023-12-20T07:00:58;6.40;99.90
24011;DHT22;12217;50.792;4.372;2023-12-20T07:03:24;6.40;99.90
24011;DHT22;12217;50.792;4.372;2023-12-20T07:05:49;6.40;99.90
24011;DHT22;12217;50.792;4.372;2023-12-20T07:08:15;6.40;99.90
24011;DHT22;12217;50.792;4.372;2023-12-20T07:10:41;6.30;99.90
24011;DHT22;12217;50.792;4.372;2023-12-20T07:13:07;6.10;99.90
24011;DHT22;12217;50.792;4.372;2023-12-20T07:15:33;6.20;99.90
24011;DHT22;12217;50.792;4.372;2023-12-20T07:17:59;6.10;99.90
24011;DHT22;12217;50.792;4.372;2023-12-20T07:20:26;6.00;99.90
24011;DHT22;12217;50.792;4.372;2023-12-20T07:22:51;5.90;99.90
24011;DHT22;12217;50.792;4.372;2023-12-20T07:25:17;6.00;99.90
24011;DHT22;12217;50.792;4.372;2023-12-20T07:27:43;6.10;99.90
24011;DHT22;12217;50.792;4.372;2023-12-20T07:30:09;6.20;99.90
24011;DHT22;12217;50.792;4.372;2023-12-20T07:32:35;6.20;99.90
24011;DHT22;12217;50.792;4.372;2023-12-20T07:35:01;6.20;99.90
24011;DHT22;12217;50.792;4.372;2023-12-20T07:37:27;6.10;99.90
24011;DHT22;12217;50.792;4.372;2023-12-20T07:39:53;6.30;99.90
24011;DHT22;12217;50.792;4.372;2023-12-20T07:42:18;6.50;99.90
24011;DHT22;12217;50.792;4.372;2023-12-20T07:44:44;6.40;99.90
24011;DHT22;12217;50.792;4.372;2023-12-20T07:47:09;6.20;99.90
24011;DHT22;12217;50.792;4.372;2023-12-20T07:49:37;6.20;99.90
24011;DHT22;12217;50.792;4.372;2023-12-20T07:52:03;6.20;99.90
24011;DHT22;12217;50.792;4.372;2023-12-20T07:54:28;6.20;99.90
24011;DHT22;12217;50.792;4.372;2023-12-20T07:56:55;6.20;99.90
24011;DHT22;12217;50.792;4.372;2023-12-20T07:59:20;6.20;99.90
24011;DHT22;12217;50.792;4.372;2023-12-20T08:01:46;6.20;99.90
24011;DHT22;12217;50.792;4.372;2023-12-20T08:04:11;6.20;99.90
24011;DHT22;12217;50.792;4.372;2023-12-20T08:06:37;6.20;99.90
24011;DHT22;12217;50.792;4.372;2023-12-20T08:09:03;6.10;99.90
24011;DHT22;12217;50.792;4.372;2023-12-20T08:11:29;6.10;99.90
24011;DHT22;12217;50.792;4.372;2023-12-20T08:13:55;6.20;99.90
24011;DHT22;12217;50.792;4.372;2023-12-20T08:16:20;6.10;99.90
24011;DHT22;12217;50.792;4.372;2023-12-20T08:18:47;6.20;99.90
24011;DHT22;12217;50.792;4.372;2023-12-20T08:21:13;6.30;99.90
24011;DHT22;12217;50.792;4.372;2023-12-20T08:23:38;6.20;99.90
24011;DHT22;12217;50.792;4.372;2023-12-20T08:26:05;6.20;99.90
24011;DHT22;12217;50.792;4.372;2023-12-20T08:28:31;6.30;99.90
24011;DHT22;12217;50.792;4.372;2023-12-20T08:30:57;6.50;99.90
24011;DHT22;12217;50.792;4.372;2023-12-20T08:33:22;6.30;99.90
24011;DHT22;12217;50.792;4.372;2023-12-20T08:35:48;6.20;99.90
24011;DHT22;12217;50.792;4.372;2023-12-20T08:38:13;6.20;99.90
24011;DHT22;12217;50.792;4.372;2023-12-20T08:40:39;6.40;99.90
24011;DHT22;12217;50.792;4.372;2023-12-20T08:43:05;6.30;99.90
24011;DHT22;12217;50.792;4.372;2023-12-20T08:45:31;6.20;99.90
24011;DHT22;12217;50.792;4.372;2023-12-20T08:47:56;6.20;99.90
24011;DHT22;12217;50.792;4.372;2023-12-20T08:50:22;6.30;99.90
24011;DHT22;12217;50.792;4.372;2023-12-20T08:52:47;6.50;99.90
24011;DHT22;12217;50.792;4.372;2023-12-20T08:55:13;6.50;99.90
24011;DHT22;12217;50.792;4.372;2023-12-20T08:57:40;6.50;99.90
24011;DHT22;12217;50.792;4.372;2023-12-20T09:00:06;6.40;99.90
24011;DHT22;12217;50.792;4.372;2023-12-20T09:02:33;6.50;99.90
24011;DHT22;12217;50.792;4.372;2023-12-20T09:05:01;6.50;99.90
24011;DHT22;12217;50.792;4.372;2023-12-20T09:07:27;6.80;99.90
24011;DHT22;12217;50.792;4.372;2023-12-20T09:09:56;6.80;99.90
24011;DHT22;12217;50.792;4.372;2023-12-20T09:12:22;6.50;99.90
24011;DHT22;12217;50.792;4.372;2023-12-20T09:14:48;6.50;99.90
24011;DHT22;12217;50.792;4.372;2023-12-20T09:17:15;6.60;99.90
24011;DHT22;12217;50.792;4.372;2023-12-20T09:19:42;6.60;99.90
24011;DHT22;12217;50.792;4.372;2023-12-20T09:22:09;6.60;99.90
24011;DHT22;12217;50.792;4.372;2023-12-20T09:24:34;6.50;99.90
24011;DHT22;12217;50.792;4.372;2023-12-20T09:27:00;6.80;99.90
24011;DHT22;12217;50.792;4.372;2023-12-20T09:29:26;6.90;99.90
24011;DHT22;12217;50.792;4.372;2023-12-20T09:31:51;7.00;99.90
24011;DHT22;12217;50.792;4.372;2023-12-20T09:34:17;6.90;99.90
24011;DHT22;12217;50.792;4.372;2023-12-20T09:36:43;6.80;99.90
24011;DHT22;12217;50.792;4.372;2023-12-20T09:39:13;6.80;99.90
24011;DHT22;12217;50.792;4.372;2023-12-20T09:41:43;7.00;99.90
24011;DHT22;12217;50.792;4.372;2023-12-20T09:44:14;7.00;99.90
24011;DHT22;12217;50.792;4.372;2023-12-20T09:46:44;7.10;99.90
24011;DHT22;12217;50.792;4.372;2023-12-20T09:49:10;7.20;99.90
24011;DHT22;12217;50.792;4.372;2023-12-20T09:51:36;7.20;99.90
24011;DHT22;12217;50.792;4.372;2023-12-20T09:54:03;7.20;99.90
24011;DHT22;12217;50.792;4.372;2023-12-20T09:56:30;7.30;99.90
24011;DHT22;12217;50.792;4.372;2023-12-20T09:58:56;7.20;99.90
24011;DHT22;12217;50.792;4.372;2023-12-20T10:01:23;7.40;99.90
24011;DHT22;12217;50.792;4.372;2023-12-20T10:03:51;7.40;99.90
24011;DHT22;12217;50.792;4.372;2023-12-20T10:06:17;7.50;99.90
24011;DHT22;12217;50.792;4.372;2023-12-20T10:08:43;7.30;99.90
24011;DHT22;12217;50.792;4.372;2023-12-20T10:11:09;7.30;99.90
24011;DHT22;12217;50.792;4.372;2023-12-20T10:13:42;7.20;99.90
24011;DHT22;12217;50.792;4.372;2023-12-20T10:16:08;7.20;99.90
24011;DHT22;12217;50.792;4.372;2023-12-20T10:18:33;7.30;99.90
24011;DHT22;12217;50.792;4.372;2023-12-20T10:21:00;7.30;99.90
24011;DHT22;12217;50.792;4.372;2023-12-20T10:23:26;7.50;99.90
24011;DHT22;12217;50.792;4.372;2023-12-20T10:26:01;7.50;99.90
24011;DHT22;12217;50.792;4.372;2023-12-20T10:28:28;7.30;99.90
24011;DHT22;12217;50.792;4.372;2023-12-20T10:30:58;7.30;99.90
24011;DHT22;12217;50.792;4.372;2023-12-20T10:33:30;7.30;99.90
24011;DHT22;12217;50.792;4.372;2023-12-20T10:36:07;7.40;99.90
24011;DHT22;12217;50.792;4.372;2023-12-20T10:38:52;7.40;99.90
24011;DHT22;12217;50.792;4.372;2023-12-20T10:41:26;7.40;99.90
24011;DHT22;12217;50.792;4.372;2023-12-20T10:44:00;7.60;99.90
24011;DHT22;12217;50.792;4.372;2023-12-20T10:46:27;7.80;99.90
24011;DHT22;12217;50.792;4.372;2023-12-20T10:48:54;7.90;99.90
24011;DHT22;12217;50.792;4.372;2023-12-20T10:51:20;8.00;99.90
24011;DHT22;12217;50.792;4.372;2023-12-20T10:53:49;7.90;99.90
24011;DHT22;12217;50.792;4.372;2023-12-20T10:56:17;7.70;99.90
24011;DHT22;12217;50.792;4.372;2023-12-20T10:58:44;7.90;99.90
24011;DHT22;12217;50.792;4.372;2023-12-20T11:01:13;8.00;99.90
24011;DHT22;12217;50.792;4.372;2023-12-20T11:03:50;7.90;99.90
24011;DHT22;12217;50.792;4.372;2023-12-20T11:06:54;7.80;99.90
24011;DHT22;12217;50.792;4.372;2023-12-20T11:09:48;7.80;99.90
24011;DHT22;12217;50.792;4.372;2023-12-20T11:12:28;7.90;99.90
24011;DHT22;12217;50.792;4.372;2023-12-20T11:14:58;7.90;99.90
24011;DHT22;12217;50.792;4.372;2023-12-20T11:17:29;8.00;99.90
24011;DHT22;12217;50.792;4.372;2023-12-20T11:22:24;8.10;99.90
24011;DHT22;12217;50.792;4.372;2023-12-20T11:24:51;8.30;99.90
24011;DHT22;12217;50.792;4.372;2023-12-20T11:27:18;8.30;99.90
24011;DHT22;12217;50.792;4.372;2023-12-20T11:29:51;8.30;99.90
24011;DHT22;12217;50.792;4.372;2023-12-20T11:37:37;8.40;99.90
24011;DHT22;12217;50.792;4.372;2023-12-20T11:40:06;8.30;99.90
24011;DHT22;12217;50.792;4.372;2023-12-20T11:42:39;8.20;99.90
24011;DHT22;12217;50.792;4.372;2023-12-20T11:45:09;8.10;99.90
24011;DHT22;12217;50.792;4.372;2023-12-20T11:47:35;8.00;99.90
24011;DHT22;12217;50.792;4.372;2023-12-20T11:50:01;8.00;99.90
24011;DHT22;12217;50.792;4.372;2023-12-20T11:52:29;8.10;99.90
24011;DHT22;12217;50.792;4.372;2023-12-20T11:54:55;8.00;99.90
24011;DHT22;12217;50.792;4.372;2023-12-20T11:57:20;8.00;99.90
24011;DHT22;12217;50.792;4.372;2023-12-20T11:59:46;8.00;99.90
24011;DHT22;12217;50.792;4.372;2023-12-20T12:02:12;8.10;99.90
24011;DHT22;12217;50.792;4.372;2023-12-20T12:04:41;8.20;99.90
24011;DHT22;12217;50.792;4.372;2023-12-20T12:07:07;8.20;99.90
24011;DHT22;12217;50.792;4.372;2023-12-20T12:09:33;8.10;99.90
24011;DHT22;12217;50.792;4.372;2023-12-20T12:11:59;8.20;99.90
24011;DHT22;12217;50.792;4.372;2023-12-20T12:14:24;8.40;99.90
24011;DHT22;12217;50.792;4.372;2023-12-20T12:16:50;8.40;99.90
24011;DHT22;12217;50.792;4.372;2023-12-20T12:19:25;8.50;99.90
24011;DHT22;12217;50.792;4.372;2023-12-20T12:22:14;8.40;99.90
24011;DHT22;12217;50.792;4.372;2023-12-20T12:24:41;8.30;99.90
24011;DHT22;12217;50.792;4.372;2023-12-20T12:27:08;8.50;99.90
24011;DHT22;12217;50.792;4.372;2023-12-20T12:29:34;8.60;99.90
24011;DHT22;12217;50.792;4.372;2023-12-20T12:32:01;8.50;99.90
24011;DHT22;12217;50.792;4.372;2023-12-20T12:34:29;8.40;99.90
24011;DHT22;12217;50.792;4.372;2023-12-20T12:36:56;8.30;99.90
24011;DHT22;12217;50.792;4.372;2023-12-20T12:39:23;8.30;99.90
24011;DHT22;12217;50.792;4.372;2023-12-20T12:41:53;8.40;99.90
24011;DHT22;12217;50.792;4.372;2023-12-20T12:44:18;8.40;99.90
24011;DHT22;12217;50.792;4.372;2023-12-20T12:46:46;8.40;99.90
24011;DHT22;12217;50.792;4.372;2023-12-20T12:49:12;8.50;99.90
24011;DHT22;12217;50.792;4.372;2023-12-20T12:51:37;8.60;99.90
24011;DHT22;12217;50.792;4.372;2023-12-20T12:54:03;8.70;99.90
24011;DHT22;12217;50.792;4.372;2023-12-20T12:56:29;8.60;99.90
24011;DHT22;12217;50.792;4.372;2023-12-20T12:58:55;8.70;99.90
24011;DHT22;12217;50.792;4.372;2023-12-20T13:01:20;8.80;99.90
24011;DHT22;12217;50.792;4.372;2023-12-20T13:03:46;8.70;99.90
24011;DHT22;12217;50.792;4.372;2023-12-20T13:06:12;8.60;99.90
24011;DHT22;12217;50.792;4.372;2023-12-20T13:08:38;8.60;99.90
24011;DHT22;12217;50.792;4.372;2023-12-20T13:11:03;8.70;99.90
24011;DHT22;12217;50.792;4.372;2023-12-20T13:13:30;8.80;99.90
24011;DHT22;12217;50.792;4.372;2023-12-20T13:15:56;8.70;99.90
24011;DHT22;12217;50.792;4.372;2023-12-20T13:18:23;8.50;99.90
24011;DHT22;12217;50.792;4.372;2023-12-20T13:20:48;8.50;99.90
24011;DHT22;12217;50.792;4.372;2023-12-20T13:23:14;8.50;99.90
24011;DHT22;12217;50.792;4.372;2023-12-20T13:25:43;8.50;99.90
24011;DHT22;12217;50.792;4.372;2023-12-20T13:28:10;8.60;99.90
24011;DHT22;12217;50.792;4.372;2023-12-20T13:30:36;8.70;99.90
24011;DHT22;12217;50.792;4.372;2023-12-20T13:33:01;8.70;99.90
24011;DHT22;12217;50.792;4.372;2023-12-20T13:35:27;8.70;99.90
24011;DHT22;12217;50.792;4.372;2023-12-20T13:37:53;8.80;99.90
24011;DHT22;12217;50.792;4.372;2023-12-20T13:40:19;8.80;99.90
24011;DHT22;12217;50.792;4.372;2023-12-20T13:42:44;9.00;99.90
24011;DHT22;12217;50.792;4.372;2023-12-20T13:45:11;8.90;99.90
24011;DHT22;12217;50.792;4.372;2023-12-20T13:47:36;9.00;99.90
24011;DHT22;12217;50.792;4.372;2023-12-20T13:50:03;9.00;99.90
24011;DHT22;12217;50.792;4.372;2023-12-20T13:52:29;9.00;99.90
24011;DHT22;12217;50.792;4.372;2023-12-20T13:54:55;9.00;99.90
24011;DHT22;12217;50.792;4.372;2023-12-20T13:57:20;9.00;99.90
24011;DHT22;12217;50.792;4.372;2023-12-20T13:59:46;9.10;99.90
24011;DHT22;12217;50.792;4.372;2023-12-20T14:02:12;9.10;99.90
24011;DHT22;12217;50.792;4.372;2023-12-20T14:04:37;9.20;99.90
24011;DHT22;12217;50.792;4.372;2023-12-20T14:07:05;9.10;99.90
24011;DHT22;12217;50.792;4.372;2023-12-20T14:09:30;9.00;99.90
24011;DHT22;12217;50.792;4.372;2023-12-20T14:11:56;9.20;99.90
24011;DHT22;12217;50.792;4.372;2023-12-20T14:14:22;9.10;99.90
24011;DHT22;12217;50.792;4.372;2023-12-20T14:16:47;9.20;99.90
24011;DHT22;12217;50.792;4.372;2023-12-20T14:19:13;9.30;99.90
24011;DHT22;12217;50.792;4.372;2023-12-20T14:21:38;9.50;99.90
24011;DHT22;12217;50.792;4.372;2023-12-20T14:24:04;9.30;99.90
24011;DHT22;12217;50.792;4.372;2023-12-20T14:26:30;9.40;99.90
24011;DHT22;12217;50.792;4.372;2023-12-20T14:28:57;9.40;99.90
24011;DHT22;12217;50.792;4.372;2023-12-20T14:31:23;9.30;99.90
24011;DHT22;12217;50.792;4.372;2023-12-20T14:33:50;9.20;99.90
24011;DHT22;12217;50.792;4.372;2023-12-20T14:36:17;9.20;99.90
24011;DHT22;12217;50.792;4.372;2023-12-20T14:38:44;9.20;99.90
24011;DHT22;12217;50.792;4.372;2023-12-20T14:41:09;9.10;99.90
24011;DHT22;12217;50.792;4.372;2023-12-20T14:43:35;9.10;99.90
24011;DHT22;12217;50.792;4.372;2023-12-20T14:46:01;9.20;99.90
24011;DHT22;12217;50.792;4.372;2023-12-20T14:48:26;9.10;99.90
24011;DHT22;12217;50.792;4.372;2023-12-20T14:50:55;9.20;99.90
24011;DHT22;12217;50.792;4.372;2023-12-20T14:53:20;9.20;99.90
24011;DHT22;12217;50.792;4.372;2023-12-20T14:55:46;9.30;99.90
24011;DHT22;12217;50.792;4.372;2023-12-20T14:58:12;9.30;99.90
24011;DHT22;12217;50.792;4.372;2023-12-20T15:00:38;9.30;99.90
24011;DHT22;12217;50.792;4.372;2023-12-20T15:03:04;9.30;99.90
24011;DHT22;12217;50.792;4.372;2023-12-20T15:05:30;9.40;99.90
24011;DHT22;12217;50.792;4.372;2023-12-20T15:07:56;9.30;99.90
24011;DHT22;12217;50.792;4.372;2023-12-20T15:10:22;9.50;99.90
24011;DHT22;12217;50.792;4.372;2023-12-20T15:12:47;9.40;99.90
24011;DHT22;12217;50.792;4.372;2023-12-20T15:15:13;9.40;99.90
24011;DHT22;12217;50.792;4.372;2023-12-20T15:17:39;9.30;99.90
24011;DHT22;12217;50.792;4.372;2023-12-20T15:20:05;9.20;99.90
24011;DHT22;12217;50.792;4.372;2023-12-20T15:22:31;9.30;99.90
24011;DHT22;12217;50.792;4.372;2023-12-20T15:24:59;9.40;99.90
24011;DHT22;12217;50.792;4.372;2023-12-20T15:27:26;9.50;99.90
24011;DHT22;12217;50.792;4.372;2023-12-20T15:29:52;9.50;99.90
24011;DHT22;12217;50.792;4.372;2023-12-20T15:32:18;9.40;99.90
24011;DHT22;12217;50.792;4.372;2023-12-20T15:34:46;9.40;99.90
24011;DHT22;12217;50.792;4.372;2023-12-20T15:37:12;9.30;99.90
24011;DHT22;12217;50.792;4.372;2023-12-20T15:39:37;9.30;99.90
24011;DHT22;12217;50.792;4.372;2023-12-20T15:42:03;9.30;99.90
24011;DHT22;12217;50.792;4.372;2023-12-20T15:44:29;9.40;99.90
24011;DHT22;12217;50.792;4.372;2023-12-20T15:46:55;9.50;99.90